sensor_id;sensor_type;location;lat;lon;timestamp;P1;durP1;ratioP1;P2;durP2;ratioP2
63900;SDS011;50538;53.482;10.294;2023-03-03T00:03:41;7.30;;;3.05;;
63900;SDS011;50538;53.482;10.294;2023-03-03T00:23:51;8.32;;;3.47;;
63900;SDS011;50538;53.482;10.294;2023-03-03T00:33:54;16.98;;;4.93;;
63900;SDS011;50538;53.482;10.294;2023-03-03T00:43:56;12.52;;;4.22;;
63900;SDS011;50538;53.482;10.294;2023-03-03T00:53:57;10.63;;;4.30;;
63900;SDS011;50538;53.482;10.294;2023-03-03T01:03:58;9.98;;;3.58;;
63900;SDS011;50538;53.482;10.294;2023-03-03T01:13:59;12.48;;;4.82;;
63900;SDS011;50538;53.482;10.294;2023-03-03T01:23:59;12.52;;;4.82;;
63900;SDS011;50538;53.482;10.294;2023-03-03T01:33:59;15.85;;;5.65;;
63900;SDS011;50538;53.482;10.294;2023-03-03T01:44:00;12.93;;;4.85;;
63900;SDS011;50538;53.482;10.294;2023-03-03T01:54:01;9.70;;;4.53;;
63900;SDS011;50538;53.482;10.294;2023-03-03T02:04:05;10.82;;;4.68;;
63900;SDS011;50538;53.482;10.294;2023-03-03T02:14:05;10.98;;;3.80;;
63900;SDS011;50538;53.482;10.294;2023-03-03T02:24:24;6.40;;;3.13;;
63900;SDS011;50538;53.482;10.294;2023-03-03T02:34:41;6.63;;;3.00;;
63900;SDS011;50538;53.482;10.294;2023-03-03T02:44:44;10.95;;;4.38;;
63900;SDS011;50538;53.482;10.294;2023-03-03T02:54:45;10.33;;;4.40;;
63900;SDS011;50538;53.482;10.294;2023-03-03T03:04:45;7.20;;;2.97;;
63900;SDS011;50538;53.482;10.294;2023-03-03T03:14:46;10.05;;;3.85;;
63900;SDS011;50538;53.482;10.294;2023-03-03T03:24:46;7.93;;;3.40;;
63900;SDS011;50538;53.482;10.294;2023-03-03T03:34:46;15.35;;;4.20;;
63900;SDS011;50538;53.482;10.294;2023-03-03T03:44:47;7.88;;;3.13;;
63900;SDS011;50538;53.482;10.294;2023-03-03T03:54:48;8.20;;;3.22;;
63900;SDS011;50538;53.482;10.294;2023-03-03T04:04:48;9.10;;;3.03;;
63900;SDS011;50538;53.482;10.294;2023-03-03T04:14:49;6.80;;;2.65;;
63900;SDS011;50538;53.482;10.294;2023-03-03T04:24:49;15.00;;;5.28;;
63900;SDS011;50538;53.482;10.294;2023-03-03T04:34:49;8.10;;;4.00;;
63900;SDS011;50538;53.482;10.294;2023-03-03T04:44:50;15.63;;;5.22;;
63900;SDS011;50538;53.482;10.294;2023-03-03T04:54:50;9.65;;;2.85;;
63900;SDS011;50538;53.482;10.294;2023-03-03T05:04:51;13.93;;;5.07;;
63900;SDS011;50538;53.482;10.294;2023-03-03T05:14:52;7.22;;;1.38;;
63900;SDS011;50538;53.482;10.294;2023-03-03T05:24:53;10.00;;;4.13;;
63900;SDS011;50538;53.482;10.294;2023-03-03T05:34:54;15.73;;;5.95;;
63900;SDS011;50538;53.482;10.294;2023-03-03T05:44:56;15.55;;;4.90;;
63900;SDS011;50538;53.482;10.294;2023-03-03T05:54:57;9.52;;;3.65;;
63900;SDS011;50538;53.482;10.294;2023-03-03T06:05:37;16.10;;;3.97;;
63900;SDS011;50538;53.482;10.294;2023-03-03T06:15:40;7.05;;;2.38;;
63900;SDS011;50538;53.482;10.294;2023-03-03T06:25:45;11.03;;;4.40;;
63900;SDS011;50538;53.482;10.294;2023-03-03T06:35:51;9.40;;;4.13;;
63900;SDS011;50538;53.482;10.294;2023-03-03T06:45:53;12.20;;;4.68;;
63900;SDS011;50538;53.482;10.294;2023-03-03T06:55:54;9.90;;;4.97;;
63900;SDS011;50538;53.482;10.294;2023-03-03T07:05:57;14.30;;;4.72;;
63900;SDS011;50538;53.482;10.294;2023-03-03T07:16:02;16.58;;;5.30;;
63900;SDS011;50538;53.482;10.294;2023-03-03T07:26:11;12.73;;;5.40;;
63900;SDS011;50538;53.482;10.294;2023-03-03T07:36:46;10.82;;;4.15;;
63900;SDS011;50538;53.482;10.294;2023-03-03T07:56:42;17.05;;;5.93;;
63900;SDS011;50538;53.482;10.294;2023-03-03T08:16:58;17.70;;;3.80;;
63900;SDS011;50538;53.482;10.294;2023-03-03T08:26:58;20.17;;;6.38;;
63900;SDS011;50538;53.482;10.294;2023-03-03T08:36:58;21.27;;;7.70;;
63900;SDS011;50538;53.482;10.294;2023-03-03T08:46:59;19.52;;;5.80;;
63900;SDS011;50538;53.482;10.294;2023-03-03T08:57:00;20.38;;;7.53;;
63900;SDS011;50538;53.482;10.294;2023-03-03T09:07:00;19.90;;;6.38;;
63900;SDS011;50538;53.482;10.294;2023-03-03T09:17:01;17.33;;;5.55;;
63900;SDS011;50538;53.482;10.294;2023-03-03T09:27:11;17.30;;;7.32;;
63900;SDS011;50538;53.482;10.294;2023-03-03T09:37:22;18.30;;;6.78;;
63900;SDS011;50538;53.482;10.294;2023-03-03T09:57:50;14.52;;;5.10;;
63900;SDS011;50538;53.482;10.294;2023-03-03T10:08:10;15.80;;;5.10;;
63900;SDS011;50538;53.482;10.294;2023-03-03T10:29:20;16.10;;;6.05;;
63900;SDS011;50538;53.482;10.294;2023-03-03T10:49:48;17.10;;;5.65;;
63900;SDS011;50538;53.482;10.294;2023-03-03T11:00:19;23.65;;;8.05;;
63900;SDS011;50538;53.482;10.294;2023-03-03T11:10:29;29.38;;;8.82;;
63900;SDS011;50538;53.482;10.294;2023-03-03T11:41:34;19.92;;;6.55;;
63900;SDS011;50538;53.482;10.294;2023-03-03T11:52:20;14.07;;;4.82;;
63900;SDS011;50538;53.482;10.294;2023-03-03T12:02:31;13.77;;;5.47;;
63900;SDS011;50538;53.482;10.294;2023-03-03T12:13:02;14.18;;;5.90;;
63900;SDS011;50538;53.482;10.294;2023-03-03T12:33:25;11.13;;;4.75;;
63900;SDS011;50538;53.482;10.294;2023-03-03T12:43:45;4.95;;;2.42;;
63900;SDS011;50538;53.482;10.294;2023-03-03T13:15:02;7.72;;;2.15;;
63900;SDS011;50538;53.482;10.294;2023-03-03T13:25:33;5.78;;;2.25;;
63900;SDS011;50538;53.482;10.294;2023-03-03T13:35:53;4.20;;;1.55;;
63900;SDS011;50538;53.482;10.294;2023-03-03T13:46:00;5.13;;;1.65;;
63900;SDS011;50538;53.482;10.294;2023-03-03T14:06:14;7.13;;;2.40;;
63900;SDS011;50538;53.482;10.294;2023-03-03T14:16:33;5.07;;;1.60;;
63900;SDS011;50538;53.482;10.294;2023-03-03T14:26:58;3.47;;;1.40;;
63900;SDS011;50538;53.482;10.294;2023-03-03T14:37:20;3.38;;;1.58;;
63900;SDS011;50538;53.482;10.294;2023-03-03T14:47:22;2.20;;;1.33;;
63900;SDS011;50538;53.482;10.294;2023-03-03T15:07:46;12.80;;;1.65;;
63900;SDS011;50538;53.482;10.294;2023-03-03T15:18:09;4.13;;;1.30;;
63900;SDS011;50538;53.482;10.294;2023-03-03T15:28:18;3.35;;;1.40;;
63900;SDS011;50538;53.482;10.294;2023-03-03T15:48:51;2.88;;;1.42;;
63900;SDS011;50538;53.482;10.294;2023-03-03T15:59:02;9.27;;;2.60;;
63900;SDS011;50538;53.482;10.294;2023-03-03T16:40:19;7.35;;;2.83;;
63900;SDS011;50538;53.482;10.294;2023-03-03T17:21:55;5.38;;;1.50;;
63900;SDS011;50538;53.482;10.294;2023-03-03T17:32:14;4.68;;;1.55;;
63900;SDS011;50538;53.482;10.294;2023-03-03T17:52:50;14.57;;;1.98;;
63900;SDS011;50538;53.482;10.294;2023-03-03T18:13:19;5.05;;;1.20;;
63900;SDS011;50538;53.482;10.294;2023-03-03T18:23:29;5.80;;;1.25;;
63900;SDS011;50538;53.482;10.294;2023-03-03T18:43:57;2.55;;;0.90;;
63900;SDS011;50538;53.482;10.294;2023-03-03T19:04:18;3.92;;;0.98;;
63900;SDS011;50538;53.482;10.294;2023-03-03T19:24:29;5.10;;;1.10;;
63900;SDS011;50538;53.482;10.294;2023-03-03T19:44:45;5.25;;;1.73;;
63900;SDS011;50538;53.482;10.294;2023-03-03T19:55:16;9.68;;;1.40;;
63900;SDS011;50538;53.482;10.294;2023-03-03T20:05:36;12.15;;;1.55;;
63900;SDS011;50538;53.482;10.294;2023-03-03T20:16:01;3.95;;;1.45;;
63900;SDS011;50538;53.482;10.294;2023-03-03T20:26:30;5.07;;;1.95;;
63900;SDS011;50538;53.482;10.294;2023-03-03T20:36:44;3.80;;;1.13;;
63900;SDS011;50538;53.482;10.294;2023-03-03T20:57:47;5.90;;;1.10;;
63900;SDS011;50538;53.482;10.294;2023-03-03T21:08:02;6.68;;;0.93;;
63900;SDS011;50538;53.482;10.294;2023-03-03T21:18:18;6.47;;;1.35;;
63900;SDS011;50538;53.482;10.294;2023-03-03T21:28:25;10.73;;;2.38;;
63900;SDS011;50538;53.482;10.294;2023-03-03T21:38:33;11.63;;;2.35;;
63900;SDS011;50538;53.482;10.294;2023-03-03T21:48:38;14.05;;;1.52;;
63900;SDS011;50538;53.482;10.294;2023-03-03T21:58:39;9.98;;;1.77;;
63900;SDS011;50538;53.482;10.294;2023-03-03T22:08:40;4.72;;;1.27;;
63900;SDS011;50538;53.482;10.294;2023-03-03T22:18:40;3.53;;;0.90;;
63900;SDS011;50538;53.482;10.294;2023-03-03T22:28:41;11.57;;;1.48;;
63900;SDS011;50538;53.482;10.294;2023-03-03T22:38:41;3.53;;;1.10;;
63900;SDS011;50538;53.482;10.294;2023-03-03T22:48:41;2.38;;;1.08;;
63900;SDS011;50538;53.482;10.294;2023-03-03T22:58:42;10.43;;;1.17;;
63900;SDS011;50538;53.482;10.294;2023-03-03T23:08:42;3.17;;;0.80;;
63900;SDS011;50538;53.482;10.294;2023-03-03T23:18:42;5.13;;;1.10;;
63900;SDS011;50538;53.482;10.294;2023-03-03T23:28:43;8.35;;;1.23;;
63900;SDS011;50538;53.482;10.294;2023-03-03T23:38:43;3.13;;;0.95;;
63900;SDS011;50538;53.482;10.294;2023-03-03T23:48:43;6.60;;;0.73;;
63900;SDS011;50538;53.482;10.294;2023-03-03T23:58:44;5.05;;;1.17;;
